METAR Data
IDs: Format: Raw Decoded Include TAF

Data at: 0029 UTC 26 Oct 2021

KRAS 260015Z AUTO 10005KT 10SM CLR 27/25 A2994 RMK AO2 T02700246
KRAS 252355Z AUTO 10007KT 10SM CLR 27/25 A2993 RMK AO2 T02720246 10291 20271 402910253
KRAS 252335Z AUTO 11005KT 10SM CLR 27/25 A2993 RMK AO2 T02730246
KRAS 252315Z AUTO 12006KT 10SM CLR 27/24 A2992 RMK AO2 T02740243
KRAS 252255Z AUTO 10006KT 10SM CLR 28/25 A2993 RMK AO2 T02780246
KRAS 252235Z AUTO 11006KT 10SM CLR 28/25 A2993 RMK AO2 T02800246
KRAS 252215Z AUTO 10006KT 10SM CLR 28/25 A2993 RMK AO2 T02790245
KRAS 252155Z AUTO 10006KT 10SM CLR 28/25 A2992 RMK AO2 T02810246
KRAS 252135Z AUTO 11007KT 10SM CLR 28/25 A2992 RMK AO2 T02820248
KRAS 252115Z AUTO 10005KT 10SM SCT011 28/25 A2992 RMK AO2 T02830247
KRAS 252055Z AUTO 11006KT 10SM SCT011 28/25 A2992 RMK AO2 T02830248
KRAS 252035Z AUTO 11005KT 10SM SCT011 28/24 A2992 RMK AO2 T02840244
KRAS 252015Z AUTO 13006KT 10SM CLR 28/25 A2993 RMK AO2 T02830245
KRAS 251955Z AUTO 11006KT 10SM SCT011 29/25 A2994 RMK AO2 T02860247
KRAS 251935Z AUTO 11006KT 10SM SCT011 28/25 A2994 RMK AO2 T02830249
KRAS 251915Z AUTO 10005KT 10SM SCT011 28/25 A2994 RMK AO2 T02830247
KRAS 251855Z AUTO 13004KT 10SM BKN011 28/25 A2995 RMK AO2 T02800247
KRAS 251835Z AUTO 11004KT 10SM BKN011 28/25 A2996 RMK AO2 T02840249
KRAS 251815Z AUTO 14006KT 10SM SCT011 28/25 A2996 RMK AO2 T02810247
KRAS 251755Z AUTO 14005KT 10SM BKN011 BKN014 28/25 A2997 RMK AO2 T02850251 10288 20253
KRAS 251735Z AUTO 13004KT 10SM BKN011 BKN014 28/25 A2998 RMK AO2 T02840251
KRAS 251715Z AUTO 15005KT 10SM SCT011 28/25 A2998 RMK AO2 T02800248
KRAS 251655Z AUTO 12006KT 10SM SCT011 28/25 A2999 RMK AO2 T02810247
KRAS 251635Z AUTO 14006KT 10SM CLR 28/25 A2999 RMK AO2 T02790247
KRAS 251615Z AUTO 14005KT 10SM CLR 28/25 A2999 RMK AO2 T02810248
KRAS 251555Z AUTO 16006KT 10SM SCT010 SCT015 28/25 A2999 RMK AO2 T02780247
KRAS 251535Z AUTO 15006KT 10SM BKN010 BKN016 BKN023 28/25 A2999 RMK AO2 T02770249
KRAS 251515Z AUTO 14005KT 10SM BKN010 OVC019 28/25 A2999 RMK AO2 T02770251
KRAS 251455Z AUTO 18004KT 10SM BKN008 BKN012 27/25 A2998 RMK AO2 T02700248
KRAS 251435Z AUTO 18004KT 10SM BKN008 BKN012 27/25 A2997 RMK AO2 T02680248
KRAS 251415Z AUTO 18003KT 10SM OVC008 27/25 A2997 RMK AO2 T02670251
KRAS 251355Z AUTO 18004KT 10SM BKN008 27/25 A2996 RMK AO2 T02660251
KRAS 251335Z AUTO 18004KT 10SM SCT010 26/25 A2995 RMK AO2 T02610248
KRAS 251315Z AUTO 19003KT 10SM BKN010 26/25 A2994 RMK AO2 T02570247
KRAS 251255Z AUTO 18003KT 7SM BKN010 25/25 A2994 RMK AO2 T02550246
KRAS 251235Z AUTO 19003KT 7SM BKN010 25/25 A2994 RMK AO2 T02550246
KRAS 251215Z AUTO 20003KT 10SM BKN008 26/25 A2993 RMK AO2 T02550247
KRAS 251155Z AUTO 19003KT 10SM BKN008 BKN012 26/25 A2993 RMK AO2 T02570249 10263 20255
KRAS 251135Z AUTO 19004KT 10SM OVC008 26/25 A2992 RMK AO2 T02560249
KRAS 251115Z AUTO 19004KT 7SM OVC008 26/25 A2991 RMK AO2 T02560248
KRAS 251055Z AUTO 19003KT 7SM BKN008 26/25 A2991 RMK AO2 T02560249
KRAS 251035Z AUTO 18004KT 7SM SCT010 26/25 A2991 RMK AO2 T02570249
KRAS 251015Z AUTO 17004KT 7SM SCT010 26/25 A2991 RMK AO2 T02570249
KRAS 250955Z AUTO 16004KT 10SM CLR 26/25 A2991 RMK AO2 T02580250
KRAS 250935Z AUTO 16003KT 10SM SCT006 26/25 A2991 RMK AO2 T02590251
KRAS 250915Z AUTO 17004KT 10SM SCT008 26/25 A2991 RMK AO2 T02600251
KRAS 250855Z AUTO 17004KT 10SM BKN010 26/25 A2991 RMK AO2 T02600251
KRAS 250835Z AUTO 17005KT 10SM SCT010 26/25 A2991 RMK AO2 T02600251
KRAS 250815Z AUTO 16005KT 10SM SCT012 26/25 A2991 RMK AO2 T02610251
KRAS 250755Z AUTO 16005KT 10SM BKN012 26/25 A2992 RMK AO2 T02610251
KRAS 250735Z AUTO 16005KT 10SM CLR 26/25 A2992 RMK AO2 T02620251
KRAS 250715Z AUTO 16004KT 10SM CLR 26/25 A2991 RMK AO2 T02620251
KRAS 250655Z AUTO 15005KT 10SM CLR 26/25 A2991 RMK AO2 T02620251
KRAS 250635Z AUTO 16005KT 10SM CLR 26/25 A2991 RMK AO2 T02620251
KRAS 250615Z AUTO 15005KT 10SM CLR 26/25 A2991 RMK AO2 T02630251
KRAS 250555Z AUTO 15006KT 10SM CLR 26/25 A2991 RMK AO2 T02630251 10271 20263
KRAS 250535Z AUTO 14006KT 10SM CLR 26/25 A2992 RMK AO2 T02630251
KRAS 250515Z AUTO 15006KT 10SM CLR 26/25 A2991 RMK AO2 T02640251
KRAS 250455Z AUTO 15006KT 10SM CLR 26/25 A2991 RMK AO2 T02640250
KRAS 250435Z AUTO 15008KT 10SM CLR 26/25 A2991 RMK AO2 T02650250
KRAS 250415Z AUTO 14007KT 10SM CLR 26/25 A2990 RMK AO2 T02640249
KRAS 250355Z AUTO 15008KT 10SM CLR 26/25 A2989 RMK AO2 T02640249
KRAS 250335Z AUTO 14009KT 10SM CLR 26/25 A2989 RMK AO2 T02650248
KRAS 250315Z AUTO 14008KT 10SM CLR 26/25 A2988 RMK AO2 T02640247
KRAS 250255Z AUTO 15008KT 10SM CLR 26/25 A2988 RMK AO2 T02640246
KRAS 250235Z AUTO 14008KT 10SM CLR 26/25 A2987 RMK AO2 T02640246
KRAS 250215Z AUTO 14006KT 10SM CLR 26/25 A2986 RMK AO2 T02640246
KRAS 250155Z AUTO 14008KT 10SM CLR 26/25 A2985 RMK AO2 T02650248
KRAS 250135Z AUTO 14010KT 10SM CLR 27/25 A2984 RMK AO2 T02660247
KRAS 250115Z AUTO 13008KT 10SM CLR 27/25 A2984 RMK AO2 T02660248
KRAS 250055Z AUTO 14009KT 10SM CLR 27/25 A2984 RMK AO2 T02680248
KRAS 250035Z AUTO 13009KT 10SM CLR 27/25 A2983 RMK AO2 T02690248
KRAS 250015Z AUTO 12008KT 10SM CLR 27/25 A2983 RMK AO2 T02690247
KRAS 242355Z AUTO 13007KT 10SM CLR 27/25 A2983 RMK AO2 T02710245 10292 20271 402920249
KRAS 242335Z AUTO 13008KT 10SM CLR 27/25 A2982 RMK AO2 T02720246
KRAS 242315Z AUTO 13008KT 10SM CLR 28/25 A2982 RMK AO2 T02750246
KRAS 242255Z AUTO 13009KT 10SM CLR 28/25 A2982 RMK AO2 T02780246
KRAS 242235Z AUTO 12007KT 10SM CLR 28/25 A2983 RMK AO2 T02830247
KRAS 242215Z AUTO 10008KT 10SM CLR 28/25 A2983 RMK AO2 T02840246
KRAS 242155Z AUTO 12009KT 10SM CLR 28/24 A2984 RMK AO2 T02840244
KRAS 242135Z AUTO 12009KT 10SM CLR 29/25 A2983 RMK AO2 T02860246
KRAS 242115Z AUTO 14008KT 10SM SCT010 29/25 A2983 RMK AO2 T02860247
KRAS 242055Z AUTO 11008KT 10SM SCT010 28/25 A2983 RMK AO2 T02840249
KRAS 242035Z AUTO 12009KT 10SM CLR 29/25 A2982 RMK AO2 T02860250
KRAS 242015Z AUTO 12008KT 10SM CLR 29/25 A2983 RMK AO2 T02880250
KRAS 241955Z AUTO 14008KT 10SM CLR 29/25 A2983 RMK AO2 T02880248
KRAS 241935Z AUTO 15008KT 10SM CLR 29/25 A2983 RMK AO2 T02860246
KRAS 241915Z AUTO 13008KT 10SM CLR 29/25 A2983 RMK AO2 T02870247
KRAS 241855Z AUTO 14007KT 10SM CLR 29/25 A2984 RMK AO2 T02870248
KRAS 241835Z AUTO 15007KT 10SM CLR 29/25 A2985 RMK AO2 T02900248
KRAS 241815Z AUTO 16007KT 10SM CLR 29/25 A2986 RMK AO2 T02850246
KRAS 241755Z AUTO 14007KT 10SM CLR 29/25 A2987 RMK AO2 T02860249 10289 20257
KRAS 241735Z AUTO 15007KT 10SM CLR 28/25 A2987 RMK AO2 T02830246
KRAS 241715Z AUTO 16006KT 10SM CLR 28/25 A2988 RMK AO2 T02830245
KRAS 241655Z AUTO 14006KT 10SM CLR 28/25 A2988 RMK AO2 T02840247
KRAS 241635Z AUTO 15007KT 10SM CLR 28/25 A2987 RMK AO2 T02850247
KRAS 241615Z AUTO 17007KT 10SM CLR 28/25 A2988 RMK AO2 T02810246
KRAS 241555Z AUTO 16006KT 10SM CLR 28/25 A2988 RMK AO2 T02820247
KRAS 241535Z AUTO 16008KT 10SM CLR 28/25 A2987 RMK AO2 T02790247
KRAS 241515Z AUTO 16009KT 10SM CLR 28/25 A2987 RMK AO2 T02790247
KRAS 241455Z AUTO 16007KT 10SM CLR 28/25 A2987 RMK AO2 T02780247
KRAS 241435Z AUTO 16007KT 10SM CLR 28/25 A2986 RMK AO2 T02770247
KRAS 241415Z AUTO 16008KT 10SM CLR 27/25 A2985 RMK AO2 T02730245
KRAS 241355Z AUTO 16005KT 10SM SCT021 SCT026 SCT030 27/25 A2985 RMK AO2 T02700245
KRAS 241335Z AUTO 16007KT 10SM BKN021 BKN026 BKN030 27/25 A2984 RMK AO2 T02690245
KRAS 241315Z AUTO 16004KT 10SM BKN023 BKN030 26/24 A2984 RMK AO2 T02650244
KRAS 241255Z AUTO 16007KT 7SM CLR 26/24 A2983 RMK AO2 T02600241
KRAS 241235Z AUTO 16005KT 7SM CLR 26/24 A2982 RMK AO2 T02580242